sensor_id;sensor_type;location;lat;lon;timestamp;P1;durP1;ratioP1;P2;durP2;ratioP2
25936;SDS011;13733;51.178;4.450;2022-09-09T00:00:36;9.02;;;4.05;;
25936;SDS011;13733;51.178;4.450;2022-09-09T00:03:12;10.13;;;4.00;;
25936;SDS011;13733;51.178;4.450;2022-09-09T00:05:44;12.45;;;4.50;;
25936;SDS011;13733;51.178;4.450;2022-09-09T00:08:20;6.53;;;3.50;;
25936;SDS011;13733;51.178;4.450;2022-09-09T00:10:54;7.57;;;3.60;;
25936;SDS011;13733;51.178;4.450;2022-09-09T00:13:37;6.60;;;3.50;;
25936;SDS011;13733;51.178;4.450;2022-09-09T00:18:49;8.82;;;3.60;;
25936;SDS011;13733;51.178;4.450;2022-09-09T00:21:30;9.52;;;3.30;;
25936;SDS011;13733;51.178;4.450;2022-09-09T00:27:09;11.45;;;3.60;;
25936;SDS011;13733;51.178;4.450;2022-09-09T00:32:42;6.28;;;3.03;;
25936;SDS011;13733;51.178;4.450;2022-09-09T00:37:41;8.73;;;3.67;;
25936;SDS011;13733;51.178;4.450;2022-09-09T00:40:17;7.30;;;2.90;;
25936;SDS011;13733;51.178;4.450;2022-09-09T00:45:58;7.25;;;3.28;;
25936;SDS011;13733;51.178;4.450;2022-09-09T00:54:24;7.57;;;3.15;;
25936;SDS011;13733;51.178;4.450;2022-09-09T01:02:31;10.10;;;3.13;;
25936;SDS011;13733;51.178;4.450;2022-09-09T01:05:20;8.95;;;3.03;;
25936;SDS011;13733;51.178;4.450;2022-09-09T01:07:51;7.78;;;3.10;;
25936;SDS011;13733;51.178;4.450;2022-09-09T01:13:27;6.38;;;3.20;;
25936;SDS011;13733;51.178;4.450;2022-09-09T01:16:06;9.10;;;3.28;;
25936;SDS011;13733;51.178;4.450;2022-09-09T01:18:49;5.10;;;3.22;;
25936;SDS011;13733;51.178;4.450;2022-09-09T01:24:00;6.10;;;3.33;;
25936;SDS011;13733;51.178;4.450;2022-09-09T01:26:43;9.52;;;3.40;;
25936;SDS011;13733;51.178;4.450;2022-09-09T01:29:20;5.65;;;3.10;;
25936;SDS011;13733;51.178;4.450;2022-09-09T01:31:57;8.13;;;3.03;;
25936;SDS011;13733;51.178;4.450;2022-09-09T01:34:30;9.18;;;3.42;;
25936;SDS011;13733;51.178;4.450;2022-09-09T01:37:06;5.38;;;2.95;;
25936;SDS011;13733;51.178;4.450;2022-09-09T01:39:36;10.77;;;3.08;;
25936;SDS011;13733;51.178;4.450;2022-09-09T01:42:08;10.02;;;3.33;;
25936;SDS011;13733;51.178;4.450;2022-09-09T01:44:37;7.43;;;3.20;;
25936;SDS011;13733;51.178;4.450;2022-09-09T01:47:04;6.30;;;2.92;;
25936;SDS011;13733;51.178;4.450;2022-09-09T01:49:30;6.85;;;2.80;;
25936;SDS011;13733;51.178;4.450;2022-09-09T01:51:59;6.18;;;2.85;;
25936;SDS011;13733;51.178;4.450;2022-09-09T01:54:31;7.40;;;3.53;;
25936;SDS011;13733;51.178;4.450;2022-09-09T01:57:06;12.43;;;3.17;;
25936;SDS011;13733;51.178;4.450;2022-09-09T02:02:32;10.85;;;3.15;;
25936;SDS011;13733;51.178;4.450;2022-09-09T02:08:09;3.92;;;2.42;;
25936;SDS011;13733;51.178;4.450;2022-09-09T02:13:44;6.57;;;2.92;;
25936;SDS011;13733;51.178;4.450;2022-09-09T02:16:16;7.07;;;3.10;;
25936;SDS011;13733;51.178;4.450;2022-09-09T02:18:50;5.82;;;2.75;;
25936;SDS011;13733;51.178;4.450;2022-09-09T02:21:30;8.02;;;2.90;;
25936;SDS011;13733;51.178;4.450;2022-09-09T02:23:59;7.43;;;2.70;;
25936;SDS011;13733;51.178;4.450;2022-09-09T02:26:31;5.55;;;2.38;;
25936;SDS011;13733;51.178;4.450;2022-09-09T02:29:04;7.75;;;2.97;;
25936;SDS011;13733;51.178;4.450;2022-09-09T02:31:34;9.98;;;2.92;;
25936;SDS011;13733;51.178;4.450;2022-09-09T02:34:05;9.15;;;3.10;;
25936;SDS011;13733;51.178;4.450;2022-09-09T02:36:36;5.15;;;2.80;;
25936;SDS011;13733;51.178;4.450;2022-09-09T02:39:05;9.00;;;4.03;;
25936;SDS011;13733;51.178;4.450;2022-09-09T02:41:35;12.38;;;3.58;;
25936;SDS011;13733;51.178;4.450;2022-09-09T02:44:11;8.45;;;3.15;;
25936;SDS011;13733;51.178;4.450;2022-09-09T02:46:46;6.05;;;2.90;;
25936;SDS011;13733;51.178;4.450;2022-09-09T02:52:07;7.75;;;3.08;;
25936;SDS011;13733;51.178;4.450;2022-09-09T02:54:40;7.20;;;2.70;;
25936;SDS011;13733;51.178;4.450;2022-09-09T02:57:11;11.23;;;2.83;;
25936;SDS011;13733;51.178;4.450;2022-09-09T02:59:42;8.95;;;2.45;;
25936;SDS011;13733;51.178;4.450;2022-09-09T03:02:10;8.02;;;2.80;;
25936;SDS011;13733;51.178;4.450;2022-09-09T03:04:37;7.82;;;2.95;;
25936;SDS011;13733;51.178;4.450;2022-09-09T03:07:03;7.85;;;2.85;;
25936;SDS011;13733;51.178;4.450;2022-09-09T03:09:29;8.48;;;2.60;;
25936;SDS011;13733;51.178;4.450;2022-09-09T03:11:55;8.55;;;2.70;;
25936;SDS011;13733;51.178;4.450;2022-09-09T03:14:22;6.75;;;2.72;;
25936;SDS011;13733;51.178;4.450;2022-09-09T03:16:51;7.35;;;2.75;;
25936;SDS011;13733;51.178;4.450;2022-09-09T03:19:18;10.27;;;3.15;;
25936;SDS011;13733;51.178;4.450;2022-09-09T03:21:45;8.40;;;3.10;;
25936;SDS011;13733;51.178;4.450;2022-09-09T03:24:12;6.22;;;2.50;;
25936;SDS011;13733;51.178;4.450;2022-09-09T03:26:39;6.25;;;2.55;;
25936;SDS011;13733;51.178;4.450;2022-09-09T03:29:08;11.90;;;3.92;;
25936;SDS011;13733;51.178;4.450;2022-09-09T03:31:34;12.38;;;2.95;;
25936;SDS011;13733;51.178;4.450;2022-09-09T03:34:02;10.25;;;3.80;;
25936;SDS011;13733;51.178;4.450;2022-09-09T03:36:30;6.30;;;2.95;;
25936;SDS011;13733;51.178;4.450;2022-09-09T03:38:57;12.20;;;2.65;;
25936;SDS011;13733;51.178;4.450;2022-09-09T03:41:25;11.38;;;2.60;;
25936;SDS011;13733;51.178;4.450;2022-09-09T03:43:51;14.13;;;2.92;;
25936;SDS011;13733;51.178;4.450;2022-09-09T03:46:18;13.43;;;2.65;;
25936;SDS011;13733;51.178;4.450;2022-09-09T03:48:44;11.18;;;2.42;;
25936;SDS011;13733;51.178;4.450;2022-09-09T03:51:10;15.48;;;3.78;;
25936;SDS011;13733;51.178;4.450;2022-09-09T03:53:36;13.68;;;3.42;;
25936;SDS011;13733;51.178;4.450;2022-09-09T03:56:03;11.30;;;2.92;;
25936;SDS011;13733;51.178;4.450;2022-09-09T03:58:32;14.48;;;3.38;;
25936;SDS011;13733;51.178;4.450;2022-09-09T04:01:05;11.82;;;2.63;;
25936;SDS011;13733;51.178;4.450;2022-09-09T04:03:38;14.85;;;2.70;;
25936;SDS011;13733;51.178;4.450;2022-09-09T04:06:06;8.70;;;2.58;;
25936;SDS011;13733;51.178;4.450;2022-09-09T04:08:34;13.85;;;2.97;;
25936;SDS011;13733;51.178;4.450;2022-09-09T04:11:01;14.20;;;3.08;;
25936;SDS011;13733;51.178;4.450;2022-09-09T04:16:03;11.00;;;2.60;;
25936;SDS011;13733;51.178;4.450;2022-09-09T04:18:29;10.07;;;2.80;;
25936;SDS011;13733;51.178;4.450;2022-09-09T04:20:56;19.30;;;3.63;;
25936;SDS011;13733;51.178;4.450;2022-09-09T04:23:28;14.25;;;2.97;;
25936;SDS011;13733;51.178;4.450;2022-09-09T04:25:56;12.27;;;3.05;;
25936;SDS011;13733;51.178;4.450;2022-09-09T04:28:32;14.23;;;2.90;;
25936;SDS011;13733;51.178;4.450;2022-09-09T04:31:07;9.80;;;2.92;;
25936;SDS011;13733;51.178;4.450;2022-09-09T04:33:37;12.25;;;3.20;;
25936;SDS011;13733;51.178;4.450;2022-09-09T04:36:06;13.27;;;2.83;;
25936;SDS011;13733;51.178;4.450;2022-09-09T04:38:32;14.68;;;2.90;;
25936;SDS011;13733;51.178;4.450;2022-09-09T04:40:59;20.65;;;3.20;;
25936;SDS011;13733;51.178;4.450;2022-09-09T04:43:25;13.98;;;3.00;;
25936;SDS011;13733;51.178;4.450;2022-09-09T04:45:52;13.55;;;2.58;;
25936;SDS011;13733;51.178;4.450;2022-09-09T04:48:21;11.40;;;2.65;;
25936;SDS011;13733;51.178;4.450;2022-09-09T04:50:55;10.48;;;2.72;;
25936;SDS011;13733;51.178;4.450;2022-09-09T04:53:21;11.95;;;2.85;;
25936;SDS011;13733;51.178;4.450;2022-09-09T04:55:47;8.95;;;2.65;;
25936;SDS011;13733;51.178;4.450;2022-09-09T04:58:14;16.27;;;3.13;;
25936;SDS011;13733;51.178;4.450;2022-09-09T05:00:41;10.90;;;2.90;;
25936;SDS011;13733;51.178;4.450;2022-09-09T05:03:07;9.70;;;2.38;;
25936;SDS011;13733;51.178;4.450;2022-09-09T05:05:35;15.32;;;3.47;;
25936;SDS011;13733;51.178;4.450;2022-09-09T05:08:05;14.68;;;3.25;;
25936;SDS011;13733;51.178;4.450;2022-09-09T05:10:34;15.02;;;3.08;;
25936;SDS011;13733;51.178;4.450;2022-09-09T05:13:03;13.60;;;2.65;;
25936;SDS011;13733;51.178;4.450;2022-09-09T05:15:30;8.30;;;2.60;;
25936;SDS011;13733;51.178;4.450;2022-09-09T05:17:57;10.93;;;2.75;;
25936;SDS011;13733;51.178;4.450;2022-09-09T05:20:29;17.63;;;3.88;;
25936;SDS011;13733;51.178;4.450;2022-09-09T05:22:55;15.27;;;3.17;;
25936;SDS011;13733;51.178;4.450;2022-09-09T05:25:24;18.42;;;3.45;;
25936;SDS011;13733;51.178;4.450;2022-09-09T05:27:54;14.85;;;3.30;;
25936;SDS011;13733;51.178;4.450;2022-09-09T05:30:20;13.73;;;2.90;;
25936;SDS011;13733;51.178;4.450;2022-09-09T05:32:49;10.35;;;3.13;;
25936;SDS011;13733;51.178;4.450;2022-09-09T05:35:16;15.73;;;2.90;;
25936;SDS011;13733;51.178;4.450;2022-09-09T05:37:44;15.73;;;3.20;;
25936;SDS011;13733;51.178;4.450;2022-09-09T05:40:11;13.40;;;3.25;;
25936;SDS011;13733;51.178;4.450;2022-09-09T05:42:38;10.13;;;3.05;;
25936;SDS011;13733;51.178;4.450;2022-09-09T05:45:06;17.15;;;3.28;;
25936;SDS011;13733;51.178;4.450;2022-09-09T05:47:33;10.93;;;3.22;;
25936;SDS011;13733;51.178;4.450;2022-09-09T05:50:00;13.60;;;3.28;;
25936;SDS011;13733;51.178;4.450;2022-09-09T05:52:27;16.52;;;3.67;;
25936;SDS011;13733;51.178;4.450;2022-09-09T05:54:54;15.05;;;3.05;;
25936;SDS011;13733;51.178;4.450;2022-09-09T05:57:22;12.32;;;2.97;;
25936;SDS011;13733;51.178;4.450;2022-09-09T05:59:49;9.20;;;2.72;;
25936;SDS011;13733;51.178;4.450;2022-09-09T06:02:15;12.05;;;2.95;;
25936;SDS011;13733;51.178;4.450;2022-09-09T06:04:41;13.68;;;2.72;;
25936;SDS011;13733;51.178;4.450;2022-09-09T06:07:07;11.98;;;2.92;;
25936;SDS011;13733;51.178;4.450;2022-09-09T06:09:34;17.50;;;2.75;;
25936;SDS011;13733;51.178;4.450;2022-09-09T06:11:59;18.25;;;3.38;;
25936;SDS011;13733;51.178;4.450;2022-09-09T06:14:26;14.35;;;3.17;;
25936;SDS011;13733;51.178;4.450;2022-09-09T06:16:55;16.15;;;3.78;;
25936;SDS011;13733;51.178;4.450;2022-09-09T06:19:25;13.27;;;2.70;;
25936;SDS011;13733;51.178;4.450;2022-09-09T06:21:53;16.60;;;3.15;;
25936;SDS011;13733;51.178;4.450;2022-09-09T06:24:21;13.00;;;2.95;;
25936;SDS011;13733;51.178;4.450;2022-09-09T06:26:47;11.77;;;3.13;;
25936;SDS011;13733;51.178;4.450;2022-09-09T06:29:19;21.08;;;2.90;;
25936;SDS011;13733;51.178;4.450;2022-09-09T06:31:45;17.08;;;3.00;;
25936;SDS011;13733;51.178;4.450;2022-09-09T06:34:20;17.15;;;3.33;;
25936;SDS011;13733;51.178;4.450;2022-09-09T06:36:49;13.00;;;3.23;;
25936;SDS011;13733;51.178;4.450;2022-09-09T06:39:16;14.02;;;3.15;;
25936;SDS011;13733;51.178;4.450;2022-09-09T06:41:42;12.88;;;3.00;;
25936;SDS011;13733;51.178;4.450;2022-09-09T06:44:19;12.27;;;2.80;;
25936;SDS011;13733;51.178;4.450;2022-09-09T06:46:45;13.93;;;3.25;;
25936;SDS011;13733;51.178;4.450;2022-09-09T06:49:13;15.95;;;3.30;;
25936;SDS011;13733;51.178;4.450;2022-09-09T06:51:39;15.27;;;2.80;;
25936;SDS011;13733;51.178;4.450;2022-09-09T06:54:11;15.68;;;3.08;;
25936;SDS011;13733;51.178;4.450;2022-09-09T06:56:39;18.10;;;3.60;;
25936;SDS011;13733;51.178;4.450;2022-09-09T06:59:11;15.30;;;3.15;;
25936;SDS011;13733;51.178;4.450;2022-09-09T07:01:40;11.05;;;2.70;;
25936;SDS011;13733;51.178;4.450;2022-09-09T07:04:11;15.55;;;2.95;;
25936;SDS011;13733;51.178;4.450;2022-09-09T07:06:41;14.80;;;2.90;;
25936;SDS011;13733;51.178;4.450;2022-09-09T07:09:14;12.38;;;2.70;;
25936;SDS011;13733;51.178;4.450;2022-09-09T07:11:44;11.57;;;2.67;;
25936;SDS011;13733;51.178;4.450;2022-09-09T07:14:12;14.13;;;2.70;;
25936;SDS011;13733;51.178;4.450;2022-09-09T07:16:41;12.38;;;2.47;;
25936;SDS011;13733;51.178;4.450;2022-09-09T07:19:08;11.77;;;2.40;;
25936;SDS011;13733;51.178;4.450;2022-09-09T07:21:34;15.50;;;2.97;;
25936;SDS011;13733;51.178;4.450;2022-09-09T07:24:00;10.70;;;2.78;;
25936;SDS011;13733;51.178;4.450;2022-09-09T07:26:27;12.05;;;2.63;;
25936;SDS011;13733;51.178;4.450;2022-09-09T07:28:56;14.98;;;2.80;;
25936;SDS011;13733;51.178;4.450;2022-09-09T07:31:26;12.85;;;2.72;;
25936;SDS011;13733;51.178;4.450;2022-09-09T07:33:55;14.18;;;2.70;;
25936;SDS011;13733;51.178;4.450;2022-09-09T07:36:23;11.90;;;2.78;;
25936;SDS011;13733;51.178;4.450;2022-09-09T07:38:55;17.23;;;3.20;;
25936;SDS011;13733;51.178;4.450;2022-09-09T07:41:33;14.65;;;3.28;;
25936;SDS011;13733;51.178;4.450;2022-09-09T07:44:08;8.65;;;2.45;;
25936;SDS011;13733;51.178;4.450;2022-09-09T07:46:40;18.08;;;2.85;;
25936;SDS011;13733;51.178;4.450;2022-09-09T07:49:08;11.88;;;2.80;;
25936;SDS011;13733;51.178;4.450;2022-09-09T07:51:37;11.57;;;2.75;;
25936;SDS011;13733;51.178;4.450;2022-09-09T07:54:06;17.50;;;2.88;;
25936;SDS011;13733;51.178;4.450;2022-09-09T07:56:36;11.52;;;2.83;;
25936;SDS011;13733;51.178;4.450;2022-09-09T07:59:03;13.75;;;2.80;;
25936;SDS011;13733;51.178;4.450;2022-09-09T08:01:39;9.35;;;1.95;;
25936;SDS011;13733;51.178;4.450;2022-09-09T08:04:09;8.93;;;2.65;;
25936;SDS011;13733;51.178;4.450;2022-09-09T08:06:42;11.05;;;2.50;;
25936;SDS011;13733;51.178;4.450;2022-09-09T08:09:16;11.43;;;2.13;;
25936;SDS011;13733;51.178;4.450;2022-09-09T08:11:43;12.18;;;2.55;;
25936;SDS011;13733;51.178;4.450;2022-09-09T08:14:10;9.52;;;2.15;;
25936;SDS011;13733;51.178;4.450;2022-09-09T08:16:38;12.45;;;2.55;;
25936;SDS011;13733;51.178;4.450;2022-09-09T08:19:10;9.30;;;2.15;;
25936;SDS011;13733;51.178;4.450;2022-09-09T08:21:38;8.80;;;2.33;;
25936;SDS011;13733;51.178;4.450;2022-09-09T08:24:06;8.88;;;2.38;;
25936;SDS011;13733;51.178;4.450;2022-09-09T08:26:34;11.35;;;2.10;;
25936;SDS011;13733;51.178;4.450;2022-09-09T08:29:03;12.30;;;2.33;;
25936;SDS011;13733;51.178;4.450;2022-09-09T08:31:32;12.43;;;2.90;;
25936;SDS011;13733;51.178;4.450;2022-09-09T08:34:00;15.63;;;2.55;;
25936;SDS011;13733;51.178;4.450;2022-09-09T08:36:33;12.50;;;3.08;;
25936;SDS011;13733;51.178;4.450;2022-09-09T08:39:01;12.50;;;2.42;;
25936;SDS011;13733;51.178;4.450;2022-09-09T08:44:08;8.60;;;2.40;;
25936;SDS011;13733;51.178;4.450;2022-09-09T08:49:16;13.65;;;2.90;;
25936;SDS011;13733;51.178;4.450;2022-09-09T08:51:56;9.93;;;2.15;;
25936;SDS011;13733;51.178;4.450;2022-09-09T08:54:23;13.35;;;2.63;;
25936;SDS011;13733;51.178;4.450;2022-09-09T08:56:54;11.32;;;2.60;;
25936;SDS011;13733;51.178;4.450;2022-09-09T08:59:21;13.65;;;3.03;;
25936;SDS011;13733;51.178;4.450;2022-09-09T09:04:48;11.60;;;2.50;;
25936;SDS011;13733;51.178;4.450;2022-09-09T09:10:15;7.72;;;2.22;;
25936;SDS011;13733;51.178;4.450;2022-09-09T09:13:54;12.27;;;2.58;;
25936;SDS011;13733;51.178;4.450;2022-09-09T09:16:25;10.32;;;2.60;;
25936;SDS011;13733;51.178;4.450;2022-09-09T09:19:14;8.95;;;2.17;;
25936;SDS011;13733;51.178;4.450;2022-09-09T09:21:44;10.75;;;2.58;;
25936;SDS011;13733;51.178;4.450;2022-09-09T09:24:20;15.23;;;2.78;;
25936;SDS011;13733;51.178;4.450;2022-09-09T09:27:11;8.60;;;2.78;;
25936;SDS011;13733;51.178;4.450;2022-09-09T09:29:43;11.48;;;2.88;;
25936;SDS011;13733;51.178;4.450;2022-09-09T09:32:11;15.90;;;3.05;;
25936;SDS011;13733;51.178;4.450;2022-09-09T09:34:41;14.48;;;2.60;;
25936;SDS011;13733;51.178;4.450;2022-09-09T09:37:16;10.55;;;2.58;;
25936;SDS011;13733;51.178;4.450;2022-09-09T09:42:15;12.27;;;2.90;;
25936;SDS011;13733;51.178;4.450;2022-09-09T09:44:45;13.02;;;2.58;;
25936;SDS011;13733;51.178;4.450;2022-09-09T09:47:19;9.13;;;2.17;;
25936;SDS011;13733;51.178;4.450;2022-09-09T09:50:15;9.38;;;3.13;;
25936;SDS011;13733;51.178;4.450;2022-09-09T09:52:51;12.18;;;2.72;;
25936;SDS011;13733;51.178;4.450;2022-09-09T09:55:30;13.20;;;2.55;;
25936;SDS011;13733;51.178;4.450;2022-09-09T09:58:01;9.13;;;2.47;;
25936;SDS011;13733;51.178;4.450;2022-09-09T10:00:32;10.20;;;2.50;;
25936;SDS011;13733;51.178;4.450;2022-09-09T10:03:13;12.70;;;3.03;;
25936;SDS011;13733;51.178;4.450;2022-09-09T10:05:48;13.55;;;2.63;;
25936;SDS011;13733;51.178;4.450;2022-09-09T10:08:16;9.73;;;2.47;;
25936;SDS011;13733;51.178;4.450;2022-09-09T10:13:36;9.60;;;2.75;;
25936;SDS011;13733;51.178;4.450;2022-09-09T10:19:21;9.68;;;2.67;;
25936;SDS011;13733;51.178;4.450;2022-09-09T10:27:54;10.48;;;2.00;;
25936;SDS011;13733;51.178;4.450;2022-09-09T10:33:33;8.43;;;2.10;;
25936;SDS011;13733;51.178;4.450;2022-09-09T10:36:26;10.02;;;2.17;;
25936;SDS011;13733;51.178;4.450;2022-09-09T10:38:56;12.23;;;2.65;;
25936;SDS011;13733;51.178;4.450;2022-09-09T10:47:14;9.63;;;2.00;;
25936;SDS011;13733;51.178;4.450;2022-09-09T10:52:38;6.88;;;2.45;;
25936;SDS011;13733;51.178;4.450;2022-09-09T10:55:24;6.35;;;2.20;;
25936;SDS011;13733;51.178;4.450;2022-09-09T10:57:56;9.77;;;2.45;;
25936;SDS011;13733;51.178;4.450;2022-09-09T11:03:15;9.02;;;2.17;;
25936;SDS011;13733;51.178;4.450;2022-09-09T11:05:55;9.43;;;2.10;;
25936;SDS011;13733;51.178;4.450;2022-09-09T11:08:23;11.32;;;2.10;;
25936;SDS011;13733;51.178;4.450;2022-09-09T11:10:59;7.40;;;1.90;;
25936;SDS011;13733;51.178;4.450;2022-09-09T11:16:27;5.57;;;1.67;;
25936;SDS011;13733;51.178;4.450;2022-09-09T11:19:02;6.68;;;1.85;;
25936;SDS011;13733;51.178;4.450;2022-09-09T11:21:49;8.05;;;1.92;;
25936;SDS011;13733;51.178;4.450;2022-09-09T11:26:50;6.25;;;1.77;;
25936;SDS011;13733;51.178;4.450;2022-09-09T11:40:23;7.32;;;2.13;;
25936;SDS011;13733;51.178;4.450;2022-09-09T11:43:05;6.68;;;2.03;;
25936;SDS011;13733;51.178;4.450;2022-09-09T11:45:39;11.45;;;2.22;;
25936;SDS011;13733;51.178;4.450;2022-09-09T11:48:22;7.00;;;1.55;;
25936;SDS011;13733;51.178;4.450;2022-09-09T11:50:58;8.52;;;1.75;;
25936;SDS011;13733;51.178;4.450;2022-09-09T11:53:34;5.50;;;1.93;;
25936;SDS011;13733;51.178;4.450;2022-09-09T11:56:05;5.43;;;1.77;;
25936;SDS011;13733;51.178;4.450;2022-09-09T11:58:36;5.63;;;1.58;;
25936;SDS011;13733;51.178;4.450;2022-09-09T12:02:09;4.05;;;1.45;;
25936;SDS011;13733;51.178;4.450;2022-09-09T12:06:31;8.43;;;2.08;;
25936;SDS011;13733;51.178;4.450;2022-09-09T12:09:05;5.28;;;1.65;;
25936;SDS011;13733;51.178;4.450;2022-09-09T12:11:31;4.97;;;1.20;;
25936;SDS011;13733;51.178;4.450;2022-09-09T12:13:58;4.43;;;1.40;;
25936;SDS011;13733;51.178;4.450;2022-09-09T12:19:41;6.68;;;1.55;;
25936;SDS011;13733;51.178;4.450;2022-09-09T12:21:49;5.10;;;1.35;;
25936;SDS011;13733;51.178;4.450;2022-09-09T12:27:07;7.40;;;1.65;;
25936;SDS011;13733;51.178;4.450;2022-09-09T12:29:51;7.00;;;1.58;;
25936;SDS011;13733;51.178;4.450;2022-09-09T12:32:23;4.57;;;1.45;;
25936;SDS011;13733;51.178;4.450;2022-09-09T12:34:54;10.68;;;1.83;;
25936;SDS011;13733;51.178;4.450;2022-09-09T12:37:32;4.57;;;1.23;;
25936;SDS011;13733;51.178;4.450;2022-09-09T12:42:44;5.55;;;1.70;;
25936;SDS011;13733;51.178;4.450;2022-09-09T12:45:25;5.72;;;1.20;;
25936;SDS011;13733;51.178;4.450;2022-09-09T12:48:10;8.50;;;1.60;;
25936;SDS011;13733;51.178;4.450;2022-09-09T12:50:44;10.45;;;1.60;;
25936;SDS011;13733;51.178;4.450;2022-09-09T12:53:21;5.00;;;1.98;;
25936;SDS011;13733;51.178;4.450;2022-09-09T12:55:57;5.38;;;1.42;;
25936;SDS011;13733;51.178;4.450;2022-09-09T12:58:29;7.15;;;1.58;;
25936;SDS011;13733;51.178;4.450;2022-09-09T13:00:59;4.20;;;1.55;;
25936;SDS011;13733;51.178;4.450;2022-09-09T13:03:27;6.25;;;1.80;;
25936;SDS011;13733;51.178;4.450;2022-09-09T13:05:53;6.18;;;2.00;;
25936;SDS011;13733;51.178;4.450;2022-09-09T13:08:25;3.75;;;1.45;;
25936;SDS011;13733;51.178;4.450;2022-09-09T13:11:03;5.43;;;1.50;;
25936;SDS011;13733;51.178;4.450;2022-09-09T13:13:36;3.92;;;1.42;;
25936;SDS011;13733;51.178;4.450;2022-09-09T13:16:06;4.47;;;1.40;;
25936;SDS011;13733;51.178;4.450;2022-09-09T13:18:43;4.53;;;1.35;;
25936;SDS011;13733;51.178;4.450;2022-09-09T13:21:10;4.90;;;1.50;;
25936;SDS011;13733;51.178;4.450;2022-09-09T13:23:36;9.70;;;1.92;;
25936;SDS011;13733;51.178;4.450;2022-09-09T13:26:04;4.15;;;1.27;;
25936;SDS011;13733;51.178;4.450;2022-09-09T13:28:33;4.35;;;1.42;;
25936;SDS011;13733;51.178;4.450;2022-09-09T13:31:04;7.38;;;1.55;;
25936;SDS011;13733;51.178;4.450;2022-09-09T13:33:37;4.57;;;1.38;;
25936;SDS011;13733;51.178;4.450;2022-09-09T13:36:05;3.55;;;1.55;;
25936;SDS011;13733;51.178;4.450;2022-09-09T13:38:35;3.97;;;1.55;;
25936;SDS011;13733;51.178;4.450;2022-09-09T13:41:11;7.65;;;1.58;;
25936;SDS011;13733;51.178;4.450;2022-09-09T13:43:46;8.75;;;1.70;;
25936;SDS011;13733;51.178;4.450;2022-09-09T13:49:17;5.40;;;1.50;;
25936;SDS011;13733;51.178;4.450;2022-09-09T13:51:48;6.50;;;1.83;;
25936;SDS011;13733;51.178;4.450;2022-09-09T13:54:19;3.08;;;1.20;;
25936;SDS011;13733;51.178;4.450;2022-09-09T13:56:46;3.05;;;1.30;;
25936;SDS011;13733;51.178;4.450;2022-09-09T13:59:13;4.25;;;1.30;;
25936;SDS011;13733;51.178;4.450;2022-09-09T14:01:41;5.72;;;1.40;;
25936;SDS011;13733;51.178;4.450;2022-09-09T14:04:07;6.53;;;1.63;;
25936;SDS011;13733;51.178;4.450;2022-09-09T14:06:34;4.22;;;1.50;;
25936;SDS011;13733;51.178;4.450;2022-09-09T14:09:03;4.03;;;1.33;;
25936;SDS011;13733;51.178;4.450;2022-09-09T14:11:34;5.63;;;1.67;;
25936;SDS011;13733;51.178;4.450;2022-09-09T14:14:00;4.65;;;1.50;;
25936;SDS011;13733;51.178;4.450;2022-09-09T14:16:26;6.63;;;1.55;;
25936;SDS011;13733;51.178;4.450;2022-09-09T14:18:52;8.98;;;1.77;;
25936;SDS011;13733;51.178;4.450;2022-09-09T14:21:21;4.53;;;1.63;;
25936;SDS011;13733;51.178;4.450;2022-09-09T14:23:47;4.18;;;1.65;;
25936;SDS011;13733;51.178;4.450;2022-09-09T14:26:13;5.70;;;1.63;;
25936;SDS011;13733;51.178;4.450;2022-09-09T14:28:39;3.95;;;1.50;;
25936;SDS011;13733;51.178;4.450;2022-09-09T14:31:06;6.15;;;1.65;;
25936;SDS011;13733;51.178;4.450;2022-09-09T14:33:32;3.90;;;1.35;;
25936;SDS011;13733;51.178;4.450;2022-09-09T14:36:01;6.97;;;1.38;;
25936;SDS011;13733;51.178;4.450;2022-09-09T14:38:29;5.90;;;1.73;;
25936;SDS011;13733;51.178;4.450;2022-09-09T14:40:56;4.47;;;1.58;;
25936;SDS011;13733;51.178;4.450;2022-09-09T14:43:23;5.28;;;1.77;;
25936;SDS011;13733;51.178;4.450;2022-09-09T14:45:49;3.85;;;1.40;;
25936;SDS011;13733;51.178;4.450;2022-09-09T14:48:16;3.92;;;1.35;;
25936;SDS011;13733;51.178;4.450;2022-09-09T14:50:42;7.05;;;1.65;;
25936;SDS011;13733;51.178;4.450;2022-09-09T14:53:08;4.68;;;1.58;;
25936;SDS011;13733;51.178;4.450;2022-09-09T14:55:36;4.90;;;1.30;;
25936;SDS011;13733;51.178;4.450;2022-09-09T14:58:02;4.57;;;1.50;;
25936;SDS011;13733;51.178;4.450;2022-09-09T15:00:28;6.80;;;1.42;;
25936;SDS011;13733;51.178;4.450;2022-09-09T15:02:55;4.68;;;1.50;;
25936;SDS011;13733;51.178;4.450;2022-09-09T15:05:21;6.43;;;1.13;;
25936;SDS011;13733;51.178;4.450;2022-09-09T15:07:47;5.72;;;1.48;;
25936;SDS011;13733;51.178;4.450;2022-09-09T15:10:16;3.97;;;1.40;;
25936;SDS011;13733;51.178;4.450;2022-09-09T15:12:42;2.58;;;1.10;;
25936;SDS011;13733;51.178;4.450;2022-09-09T15:15:08;3.75;;;1.30;;
25936;SDS011;13733;51.178;4.450;2022-09-09T15:17:35;2.47;;;1.27;;
25936;SDS011;13733;51.178;4.450;2022-09-09T15:20:02;3.42;;;1.40;;
25936;SDS011;13733;51.178;4.450;2022-09-09T15:22:30;3.60;;;1.55;;
25936;SDS011;13733;51.178;4.450;2022-09-09T15:24:56;4.28;;;1.52;;
25936;SDS011;13733;51.178;4.450;2022-09-09T15:27:22;4.15;;;1.38;;
25936;SDS011;13733;51.178;4.450;2022-09-09T15:29:49;4.10;;;1.10;;
25936;SDS011;13733;51.178;4.450;2022-09-09T15:32:16;5.25;;;1.55;;
25936;SDS011;13733;51.178;4.450;2022-09-09T15:34:42;4.43;;;1.67;;
25936;SDS011;13733;51.178;4.450;2022-09-09T15:37:12;4.38;;;1.35;;
25936;SDS011;13733;51.178;4.450;2022-09-09T15:39:38;5.13;;;1.60;;
25936;SDS011;13733;51.178;4.450;2022-09-09T15:42:05;3.67;;;1.40;;
25936;SDS011;13733;51.178;4.450;2022-09-09T15:44:39;4.45;;;1.30;;
25936;SDS011;13733;51.178;4.450;2022-09-09T15:47:10;3.40;;;1.38;;
25936;SDS011;13733;51.178;4.450;2022-09-09T15:49:37;5.27;;;1.43;;
25936;SDS011;13733;51.178;4.450;2022-09-09T15:52:03;6.40;;;1.52;;
25936;SDS011;13733;51.178;4.450;2022-09-09T15:54:33;4.22;;;1.40;;
25936;SDS011;13733;51.178;4.450;2022-09-09T15:57:03;4.78;;;1.40;;
25936;SDS011;13733;51.178;4.450;2022-09-09T15:59:30;3.95;;;1.23;;
25936;SDS011;13733;51.178;4.450;2022-09-09T16:01:58;2.72;;;1.20;;
25936;SDS011;13733;51.178;4.450;2022-09-09T16:04:25;3.78;;;1.60;;
25936;SDS011;13733;51.178;4.450;2022-09-09T16:06:52;5.47;;;1.42;;
25936;SDS011;13733;51.178;4.450;2022-09-09T16:09:19;4.63;;;1.58;;
25936;SDS011;13733;51.178;4.450;2022-09-09T16:11:46;6.25;;;1.52;;
25936;SDS011;13733;51.178;4.450;2022-09-09T16:14:13;5.47;;;1.40;;
25936;SDS011;13733;51.178;4.450;2022-09-09T16:16:40;5.15;;;1.63;;
25936;SDS011;13733;51.178;4.450;2022-09-09T16:19:07;3.05;;;1.60;;
25936;SDS011;13733;51.178;4.450;2022-09-09T16:21:37;5.43;;;1.80;;
25936;SDS011;13733;51.178;4.450;2022-09-09T16:24:06;5.18;;;1.58;;
25936;SDS011;13733;51.178;4.450;2022-09-09T16:26:33;4.65;;;1.65;;
25936;SDS011;13733;51.178;4.450;2022-09-09T16:29:01;3.83;;;1.55;;
25936;SDS011;13733;51.178;4.450;2022-09-09T16:31:28;3.80;;;1.60;;
25936;SDS011;13733;51.178;4.450;2022-09-09T16:33:57;3.03;;;1.77;;
25936;SDS011;13733;51.178;4.450;2022-09-09T16:36:27;4.05;;;1.58;;
25936;SDS011;13733;51.178;4.450;2022-09-09T16:39:00;5.63;;;1.85;;
25936;SDS011;13733;51.178;4.450;2022-09-09T16:41:28;4.53;;;1.85;;
25936;SDS011;13733;51.178;4.450;2022-09-09T16:43:55;4.68;;;2.13;;
25936;SDS011;13733;51.178;4.450;2022-09-09T16:46:22;4.32;;;1.90;;
25936;SDS011;13733;51.178;4.450;2022-09-09T16:48:49;6.35;;;2.13;;
25936;SDS011;13733;51.178;4.450;2022-09-09T16:51:20;6.95;;;2.20;;
25936;SDS011;13733;51.178;4.450;2022-09-09T16:53:49;5.15;;;2.03;;
25936;SDS011;13733;51.178;4.450;2022-09-09T16:56:17;5.88;;;2.45;;
25936;SDS011;13733;51.178;4.450;2022-09-09T16:58:48;8.65;;;3.00;;